Terminal Aerodrome Forecast
Issued by NWS Cleveland, OH

Home | Current Version | Previous Version | Text Only | Print | Product List | Glossary On
Versions: 1 2 3 4 5 6 7 8 9 10 11 12 13 14 15 16 17 18 19 20 21 22
000
FTUS41 KCLE 181100
TAFCLE
TAF
KCLE 181130Z 1812/1918 18010KT P6SM SCT120 BKN200
     FM181700 27010KT P6SM VCSH SCT040 OVC100
     FM182200 33008KT P6SM SCT100 BKN200
     FM190100 36007KT P6SM BKN200=

USA.gov is the U.S. government's official web portal to all federal, state and local government web resources and services.